sensor_id;sensor_type;location;lat;lon;timestamp;pressure;altitude;pressure_sealevel;temperature;humidity
55315;BME280;41619;42.816;23.226;2023-05-10T00:00:32;95801.97;;;8.86;78.38
55315;BME280;41619;42.816;23.226;2023-05-10T00:02:57;95799.59;;;8.85;78.38
55315;BME280;41619;42.816;23.226;2023-05-10T00:05:23;95787.09;;;8.84;78.13
55315;BME280;41619;42.816;23.226;2023-05-10T00:07:48;95791.31;;;8.81;78.30
55315;BME280;41619;42.816;23.226;2023-05-10T00:10:13;95792.34;;;8.76;78.70
55315;BME280;41619;42.816;23.226;2023-05-10T00:12:39;95787.69;;;8.77;78.53
55315;BME280;41619;42.816;23.226;2023-05-10T00:15:05;95781.44;;;8.76;78.77
55315;BME280;41619;42.816;23.226;2023-05-10T00:17:31;95784.50;;;8.75;78.93
55315;BME280;41619;42.816;23.226;2023-05-10T00:19:56;95783.72;;;8.74;78.76
55315;BME280;41619;42.816;23.226;2023-05-10T00:22:21;95778.56;;;8.73;78.82
55315;BME280;41619;42.816;23.226;2023-05-10T00:24:47;95779.72;;;8.72;79.12
55315;BME280;41619;42.816;23.226;2023-05-10T00:27:12;95775.06;;;8.72;78.94
55315;BME280;41619;42.816;23.226;2023-05-10T00:29:37;95778.94;;;8.71;79.07
55315;BME280;41619;42.816;23.226;2023-05-10T00:32:03;95779.38;;;8.73;79.15
55315;BME280;41619;42.816;23.226;2023-05-10T00:34:29;95776.19;;;8.71;79.11
55315;BME280;41619;42.816;23.226;2023-05-10T00:36:54;95776.44;;;8.66;78.98
55315;BME280;41619;42.816;23.226;2023-05-10T00:39:19;95782.25;;;8.65;79.17
55315;BME280;41619;42.816;23.226;2023-05-10T00:41:45;95774.75;;;8.62;79.55
55315;BME280;41619;42.816;23.226;2023-05-10T00:44:11;95770.34;;;8.57;79.51
55315;BME280;41619;42.816;23.226;2023-05-10T00:46:36;95762.03;;;8.54;79.62
55315;BME280;41619;42.816;23.226;2023-05-10T00:49:02;95767.03;;;8.52;79.33
55315;BME280;41619;42.816;23.226;2023-05-10T00:51:27;95770.09;;;8.50;79.57
55315;BME280;41619;42.816;23.226;2023-05-10T00:53:53;95765.34;;;8.47;79.43
55315;BME280;41619;42.816;23.226;2023-05-10T00:56:19;95772.03;;;8.49;80.02
55315;BME280;41619;42.816;23.226;2023-05-10T00:58:48;95766.94;;;8.48;79.84
55315;BME280;41619;42.816;23.226;2023-05-10T01:01:13;95767.28;;;8.46;79.81
55315;BME280;41619;42.816;23.226;2023-05-10T01:03:39;95767.19;;;8.43;79.40
55315;BME280;41619;42.816;23.226;2023-05-10T01:06:05;95773.78;;;8.42;79.66
55315;BME280;41619;42.816;23.226;2023-05-10T01:08:31;95765.84;;;8.37;80.01
55315;BME280;41619;42.816;23.226;2023-05-10T01:10:56;95761.03;;;8.34;80.13
55315;BME280;41619;42.816;23.226;2023-05-10T01:13:38;95759.41;;;8.33;79.92
55315;BME280;41619;42.816;23.226;2023-05-10T01:16:05;95761.03;;;8.34;80.22
55315;BME280;41619;42.816;23.226;2023-05-10T01:18:36;95756.38;;;8.34;80.26
55315;BME280;41619;42.816;23.226;2023-05-10T01:27:07;95752.38;;;8.32;79.87
55315;BME280;41619;42.816;23.226;2023-05-10T01:30:05;95749.19;;;8.30;80.44
55315;BME280;41619;42.816;23.226;2023-05-10T01:40:36;95748.19;;;8.22;80.38
55315;BME280;41619;42.816;23.226;2023-05-10T01:43:03;95755.59;;;8.22;80.19
55315;BME280;41619;42.816;23.226;2023-05-10T01:46:01;95741.94;;;8.22;80.57
55315;BME280;41619;42.816;23.226;2023-05-10T01:48:27;95748.66;;;8.24;80.41
55315;BME280;41619;42.816;23.226;2023-05-10T01:50:53;95745.56;;;8.26;80.68
55315;BME280;41619;42.816;23.226;2023-05-10T01:53:21;95730.00;;;8.26;80.83
55315;BME280;41619;42.816;23.226;2023-05-10T01:55:49;95729.66;;;8.28;80.81
55315;BME280;41619;42.816;23.226;2023-05-10T01:58:34;95749.19;;;8.30;80.51
55315;BME280;41619;42.816;23.226;2023-05-10T02:01:03;95739.44;;;8.29;80.91
55315;BME280;41619;42.816;23.226;2023-05-10T02:03:30;95743.66;;;8.26;80.70
55315;BME280;41619;42.816;23.226;2023-05-10T02:05:57;95741.63;;;8.23;80.40
55315;BME280;41619;42.816;23.226;2023-05-10T02:08:24;95734.91;;;8.20;80.75
55315;BME280;41619;42.816;23.226;2023-05-10T02:10:52;95736.84;;;8.20;80.95
55315;BME280;41619;42.816;23.226;2023-05-10T02:13:19;95740.38;;;8.20;80.81
55315;BME280;41619;42.816;23.226;2023-05-10T02:15:48;95741.03;;;8.17;80.58
55315;BME280;41619;42.816;23.226;2023-05-10T02:18:13;95739.91;;;8.18;80.69
55315;BME280;41619;42.816;23.226;2023-05-10T02:20:40;95744.53;;;8.18;80.65
55315;BME280;41619;42.816;23.226;2023-05-10T02:23:07;95735.91;;;8.16;80.61
55315;BME280;41619;42.816;23.226;2023-05-10T02:25:34;95739.44;;;8.16;80.66
55315;BME280;41619;42.816;23.226;2023-05-10T02:28:03;95737.84;;;8.15;80.90
55315;BME280;41619;42.816;23.226;2023-05-10T02:30:31;95726.84;;;8.12;80.81
55315;BME280;41619;42.816;23.226;2023-05-10T02:32:57;95726.06;;;8.11;80.44
55315;BME280;41619;42.816;23.226;2023-05-10T02:35:25;95724.00;;;8.08;80.87
55315;BME280;41619;42.816;23.226;2023-05-10T02:37:52;95721.88;;;8.02;80.77
55315;BME280;41619;42.816;23.226;2023-05-10T02:40:19;95732.63;;;7.98;80.54
55315;BME280;41619;42.816;23.226;2023-05-10T02:42:47;95740.72;;;7.95;80.91
55315;BME280;41619;42.816;23.226;2023-05-10T02:45:17;95736.75;;;7.92;80.84
55315;BME280;41619;42.816;23.226;2023-05-10T02:47:43;95742.44;;;7.87;80.93
55315;BME280;41619;42.816;23.226;2023-05-10T02:50:09;95739.25;;;7.85;80.48
55315;BME280;41619;42.816;23.226;2023-05-10T02:52:39;95753.88;;;7.80;80.40
55315;BME280;41619;42.816;23.226;2023-05-10T02:55:09;95745.47;;;7.73;80.34
55315;BME280;41619;42.816;23.226;2023-05-10T02:57:41;95744.47;;;7.66;79.91
55315;BME280;41619;42.816;23.226;2023-05-10T03:00:08;95746.59;;;7.60;80.05
55315;BME280;41619;42.816;23.226;2023-05-10T03:02:34;95743.31;;;7.54;79.40
55315;BME280;41619;42.816;23.226;2023-05-10T03:04:59;95748.53;;;7.47;79.26
55315;BME280;41619;42.816;23.226;2023-05-10T03:07:25;95746.66;;;7.39;79.16
55315;BME280;41619;42.816;23.226;2023-05-10T03:09:50;95755.41;;;7.33;78.85
55315;BME280;41619;42.816;23.226;2023-05-10T03:12:23;95747.31;;;7.24;78.53
55315;BME280;41619;42.816;23.226;2023-05-10T03:17:44;95747.19;;;7.08;78.28
55315;BME280;41619;42.816;23.226;2023-05-10T03:20:20;95756.19;;;7.00;78.04
55315;BME280;41619;42.816;23.226;2023-05-10T03:23:09;95753.38;;;6.96;78.06
55315;BME280;41619;42.816;23.226;2023-05-10T03:25:37;95764.25;;;6.96;77.98
55315;BME280;41619;42.816;23.226;2023-05-10T03:28:04;95766.16;;;6.96;77.29
55315;BME280;41619;42.816;23.226;2023-05-10T03:30:30;95764.13;;;6.93;77.60
55315;BME280;41619;42.816;23.226;2023-05-10T03:32:56;95769.56;;;6.93;77.42
55315;BME280;41619;42.816;23.226;2023-05-10T03:35:23;95764.91;;;6.93;77.91
55315;BME280;41619;42.816;23.226;2023-05-10T03:37:48;95772.97;;;6.90;77.36
55315;BME280;41619;42.816;23.226;2023-05-10T03:40:14;95770.25;;;6.90;77.30
55315;BME280;41619;42.816;23.226;2023-05-10T03:42:39;95770.25;;;6.90;77.72
55315;BME280;41619;42.816;23.226;2023-05-10T03:45:05;95772.97;;;6.90;77.61
55315;BME280;41619;42.816;23.226;2023-05-10T03:47:31;95768.78;;;6.92;77.79
55315;BME280;41619;42.816;23.226;2023-05-10T03:49:56;95774.22;;;6.92;77.37
55315;BME280;41619;42.816;23.226;2023-05-10T03:52:22;95769.56;;;6.93;77.84
55315;BME280;41619;42.816;23.226;2023-05-10T03:54:47;95776.13;;;6.92;77.65
55315;BME280;41619;42.816;23.226;2023-05-10T03:57:12;95778.41;;;6.90;77.46
55315;BME280;41619;42.816;23.226;2023-05-10T03:59:38;95779.53;;;6.89;77.37
55315;BME280;41619;42.816;23.226;2023-05-10T04:02:03;95777.13;;;6.87;76.99
55315;BME280;41619;42.816;23.226;2023-05-10T04:04:29;95779.84;;;6.87;77.09
55315;BME280;41619;42.816;23.226;2023-05-10T04:06:54;95777.91;;;6.88;77.32
55315;BME280;41619;42.816;23.226;2023-05-10T04:09:20;95789.28;;;6.90;76.78
55315;BME280;41619;42.816;23.226;2023-05-10T04:11:45;95790.19;;;6.94;77.37
55315;BME280;41619;42.816;23.226;2023-05-10T04:14:10;95783.63;;;6.95;77.10
55315;BME280;41619;42.816;23.226;2023-05-10T04:16:36;95785.69;;;6.98;77.06
55315;BME280;41619;42.816;23.226;2023-05-10T04:19:01;95789.66;;;7.01;77.11
55315;BME280;41619;42.816;23.226;2023-05-10T04:21:27;95797.81;;;7.01;77.21
55315;BME280;41619;42.816;23.226;2023-05-10T04:23:52;95793.97;;;7.02;77.26
55315;BME280;41619;42.816;23.226;2023-05-10T04:26:17;95792.84;;;7.03;77.37
55315;BME280;41619;42.816;23.226;2023-05-10T04:28:43;95795.56;;;7.03;76.96
55315;BME280;41619;42.816;23.226;2023-05-10T04:31:09;95799.06;;;7.03;77.44
55315;BME280;41619;42.816;23.226;2023-05-10T04:33:35;95797.16;;;7.04;77.07
55315;BME280;41619;42.816;23.226;2023-05-10T04:36:02;95798.75;;;7.05;77.17
55315;BME280;41619;42.816;23.226;2023-05-10T04:38:27;95801.13;;;7.06;77.67
55315;BME280;41619;42.816;23.226;2023-05-10T04:40:53;95802.41;;;7.09;77.72
55315;BME280;41619;42.816;23.226;2023-05-10T04:43:19;95798.09;;;7.08;77.48
55315;BME280;41619;42.816;23.226;2023-05-10T04:45:44;95804.78;;;7.10;76.89
55315;BME280;41619;42.816;23.226;2023-05-10T04:48:10;95794.81;;;7.14;77.08
55315;BME280;41619;42.816;23.226;2023-05-10T04:50:35;95800.03;;;7.19;76.74
55315;BME280;41619;42.816;23.226;2023-05-10T04:53:01;95799.03;;;7.24;76.85
55315;BME280;41619;42.816;23.226;2023-05-10T04:55:27;95800.78;;;7.28;76.58
55315;BME280;41619;42.816;23.226;2023-05-10T04:57:53;95803.28;;;7.34;76.58
55315;BME280;41619;42.816;23.226;2023-05-10T05:00:22;95802.25;;;7.38;76.37
55315;BME280;41619;42.816;23.226;2023-05-10T05:02:47;95808.97;;;7.41;76.26
55315;BME280;41619;42.816;23.226;2023-05-10T05:05:12;95805.09;;;7.42;76.72
55315;BME280;41619;42.816;23.226;2023-05-10T05:07:38;95807.50;;;7.43;76.01
55315;BME280;41619;42.816;23.226;2023-05-10T05:10:05;95808.31;;;7.44;75.99
55315;BME280;41619;42.816;23.226;2023-05-10T05:12:31;95808.63;;;7.42;75.97
55315;BME280;41619;42.816;23.226;2023-05-10T05:14:56;95809.41;;;7.43;76.07
55315;BME280;41619;42.816;23.226;2023-05-10T05:17:22;95809.41;;;7.43;76.11
55315;BME280;41619;42.816;23.226;2023-05-10T05:19:47;95803.19;;;7.42;75.65
55315;BME280;41619;42.816;23.226;2023-05-10T05:22:12;95807.50;;;7.43;75.94
55315;BME280;41619;42.816;23.226;2023-05-10T05:24:38;95809.56;;;7.46;75.66
55315;BME280;41619;42.816;23.226;2023-05-10T05:27:04;95806.84;;;7.46;75.92
55315;BME280;41619;42.816;23.226;2023-05-10T05:29:29;95815.00;;;7.46;75.71
55315;BME280;41619;42.816;23.226;2023-05-10T05:31:54;95812.41;;;7.50;75.77
55315;BME280;41619;42.816;23.226;2023-05-10T05:34:20;95807.88;;;7.54;76.08
55315;BME280;41619;42.816;23.226;2023-05-10T05:36:46;95815.38;;;7.57;75.64
55315;BME280;41619;42.816;23.226;2023-05-10T05:39:12;95813.09;;;7.59;76.29
55315;BME280;41619;42.816;23.226;2023-05-10T05:41:37;95814.69;;;7.60;76.24
55315;BME280;41619;42.816;23.226;2023-05-10T05:44:03;95824.31;;;7.57;75.90
55315;BME280;41619;42.816;23.226;2023-05-10T05:46:28;95816.16;;;7.57;75.61
55315;BME280;41619;42.816;23.226;2023-05-10T05:48:53;95824.31;;;7.57;76.04
55315;BME280;41619;42.816;23.226;2023-05-10T05:51:19;95823.88;;;7.55;75.10
55315;BME280;41619;42.816;23.226;2023-05-10T05:53:44;95825.47;;;7.56;75.33
55315;BME280;41619;42.816;23.226;2023-05-10T05:56:10;95830.13;;;7.56;75.21
55315;BME280;41619;42.816;23.226;2023-05-10T05:58:35;95830.13;;;7.56;75.53
55315;BME280;41619;42.816;23.226;2023-05-10T06:01:01;95826.59;;;7.55;75.42
55315;BME280;41619;42.816;23.226;2023-05-10T06:03:26;95828.97;;;7.57;75.54
55315;BME280;41619;42.816;23.226;2023-05-10T06:05:51;95832.16;;;7.59;75.28
55315;BME280;41619;42.816;23.226;2023-05-10T06:08:17;95830.22;;;7.59;75.37
55315;BME280;41619;42.816;23.226;2023-05-10T06:10:42;95833.09;;;7.63;75.51
55315;BME280;41619;42.816;23.226;2023-05-10T06:13:08;95835.94;;;7.67;75.81
55315;BME280;41619;42.816;23.226;2023-05-10T06:15:33;95834.47;;;7.69;75.57
55315;BME280;41619;42.816;23.226;2023-05-10T06:17:59;95839.25;;;7.72;75.00
55315;BME280;41619;42.816;23.226;2023-05-10T06:20:25;95833.78;;;7.72;75.82
55315;BME280;41619;42.816;23.226;2023-05-10T06:22:50;95838.22;;;7.77;75.46
55315;BME280;41619;42.816;23.226;2023-05-10T06:25:16;95834.38;;;7.78;75.46
55315;BME280;41619;42.816;23.226;2023-05-10T06:27:43;95832.09;;;7.80;75.48
55315;BME280;41619;42.816;23.226;2023-05-10T06:30:09;95836.09;;;7.82;75.14
55315;BME280;41619;42.816;23.226;2023-05-10T06:32:34;95837.47;;;7.88;75.32
55315;BME280;41619;42.816;23.226;2023-05-10T06:35:00;95840.75;;;7.94;75.03
55315;BME280;41619;42.816;23.226;2023-05-10T06:37:25;95838.13;;;7.98;75.14
55315;BME280;41619;42.816;23.226;2023-05-10T06:39:50;95842.94;;;8.01;75.14
55315;BME280;41619;42.816;23.226;2023-05-10T06:42:16;95841.13;;;8.05;75.01
55315;BME280;41619;42.816;23.226;2023-05-10T06:44:41;95847.72;;;8.04;74.72
55315;BME280;41619;42.816;23.226;2023-05-10T06:47:07;95851.13;;;8.01;74.78
55315;BME280;41619;42.816;23.226;2023-05-10T06:49:32;95846.47;;;8.01;74.59
55315;BME280;41619;42.816;23.226;2023-05-10T06:51:58;95854.97;;;8.00;74.13
55315;BME280;41619;42.816;23.226;2023-05-10T06:54:23;95845.31;;;8.02;73.99
55315;BME280;41619;42.816;23.226;2023-05-10T06:56:48;95838.72;;;8.03;74.11
55315;BME280;41619;42.816;23.226;2023-05-10T06:59:14;95837.59;;;8.04;74.03
55315;BME280;41619;42.816;23.226;2023-05-10T07:01:41;95842.38;;;8.07;74.01
55315;BME280;41619;42.816;23.226;2023-05-10T07:04:06;95836.69;;;8.12;73.88
55315;BME280;41619;42.816;23.226;2023-05-10T07:06:32;95848.63;;;8.20;73.48
55315;BME280;41619;42.816;23.226;2023-05-10T07:08:58;95846.47;;;8.26;72.89
55315;BME280;41619;42.816;23.226;2023-05-10T07:11:24;95846.69;;;8.33;72.87
55315;BME280;41619;42.816;23.226;2023-05-10T07:13:49;95848.91;;;8.39;72.84
55315;BME280;41619;42.816;23.226;2023-05-10T07:16:15;95854.91;;;8.45;72.79
55315;BME280;41619;42.816;23.226;2023-05-10T07:18:40;95852.38;;;8.52;72.58
55315;BME280;41619;42.816;23.226;2023-05-10T07:21:05;95856.06;;;8.56;72.39
55315;BME280;41619;42.816;23.226;2023-05-10T07:23:31;95862.06;;;8.62;72.37
55315;BME280;41619;42.816;23.226;2023-05-10T07:25:57;95859.78;;;8.64;72.14
55315;BME280;41619;42.816;23.226;2023-05-10T07:28:23;95855.47;;;8.63;71.95
55315;BME280;41619;42.816;23.226;2023-05-10T07:30:49;95852.94;;;8.70;72.39
55315;BME280;41619;42.816;23.226;2023-05-10T07:33:15;95858.63;;;8.77;71.95
55315;BME280;41619;42.816;23.226;2023-05-10T07:35:41;95861.56;;;8.84;71.95
55315;BME280;41619;42.816;23.226;2023-05-10T07:38:06;95852.78;;;8.91;71.82
55315;BME280;41619;42.816;23.226;2023-05-10T07:40:32;95848.81;;;9.00;71.43
55315;BME280;41619;42.816;23.226;2023-05-10T07:42:58;95849.91;;;9.12;71.34
55315;BME280;41619;42.816;23.226;2023-05-10T07:45:24;95842.72;;;9.19;71.01
55315;BME280;41619;42.816;23.226;2023-05-10T07:47:50;95855.53;;;9.31;70.80
55315;BME280;41619;42.816;23.226;2023-05-10T07:50:15;95856.63;;;9.42;70.62
55315;BME280;41619;42.816;23.226;2023-05-10T07:52:41;95860.03;;;9.51;70.57
55315;BME280;41619;42.816;23.226;2023-05-10T07:55:07;95852.00;;;9.58;70.55
55315;BME280;41619;42.816;23.226;2023-05-10T07:57:36;95849.47;;;9.65;70.68
55315;BME280;41619;42.816;23.226;2023-05-10T08:00:02;95853.44;;;9.68;70.40
55315;BME280;41619;42.816;23.226;2023-05-10T08:02:27;95857.06;;;9.72;70.32
55315;BME280;41619;42.816;23.226;2023-05-10T08:04:53;95857.34;;;9.67;70.17
55315;BME280;41619;42.816;23.226;2023-05-10T08:07:18;95852.78;;;9.59;69.80
55315;BME280;41619;42.816;23.226;2023-05-10T08:09:44;95851.88;;;9.67;70.22
55315;BME280;41619;42.816;23.226;2023-05-10T08:12:09;95850.91;;;9.75;70.50
55315;BME280;41619;42.816;23.226;2023-05-10T08:14:35;95850.38;;;9.85;70.37
55315;BME280;41619;42.816;23.226;2023-05-10T08:17:02;95854.19;;;9.96;70.27
55315;BME280;41619;42.816;23.226;2023-05-10T08:19:28;95866.22;;;10.08;70.20
55315;BME280;41619;42.816;23.226;2023-05-10T08:21:53;95861.25;;;10.13;69.88
55315;BME280;41619;42.816;23.226;2023-05-10T08:24:21;95859.69;;;10.12;69.80
55315;BME280;41619;42.816;23.226;2023-05-10T08:26:46;95860.56;;;10.16;69.65
55315;BME280;41619;42.816;23.226;2023-05-10T08:29:13;95860.78;;;10.23;69.80
55315;BME280;41619;42.816;23.226;2023-05-10T08:31:39;95856.63;;;10.29;69.83
55315;BME280;41619;42.816;23.226;2023-05-10T08:34:04;95857.50;;;10.34;69.39
55315;BME280;41619;42.816;23.226;2023-05-10T08:36:29;95861.03;;;10.34;69.44
55315;BME280;41619;42.816;23.226;2023-05-10T08:38:55;95863.06;;;10.37;69.04
55315;BME280;41619;42.816;23.226;2023-05-10T08:41:21;95863.97;;;10.41;69.32
55315;BME280;41619;42.816;23.226;2023-05-10T08:43:47;95865.28;;;10.47;69.29
55315;BME280;41619;42.816;23.226;2023-05-10T08:46:17;95860.06;;;10.42;68.96
55315;BME280;41619;42.816;23.226;2023-05-10T08:48:44;95864.13;;;10.32;68.99
55315;BME280;41619;42.816;23.226;2023-05-10T08:51:13;95872.31;;;10.32;69.05
55315;BME280;41619;42.816;23.226;2023-05-10T08:53:39;95863.97;;;10.25;68.83
55315;BME280;41619;42.816;23.226;2023-05-10T08:56:05;95865.00;;;10.21;68.92
55315;BME280;41619;42.816;23.226;2023-05-10T08:58:31;95865.78;;;10.21;69.02
55315;BME280;41619;42.816;23.226;2023-05-10T09:00:57;95860.31;;;10.21;68.70
55315;BME280;41619;42.816;23.226;2023-05-10T09:03:23;95858.53;;;10.13;68.14
55315;BME280;41619;42.816;23.226;2023-05-10T09:05:49;95865.06;;;10.09;68.31
55315;BME280;41619;42.816;23.226;2023-05-10T09:08:15;95862.13;;;10.01;67.87
55315;BME280;41619;42.816;23.226;2023-05-10T09:10:45;95857.44;;;10.02;68.03
55315;BME280;41619;42.816;23.226;2023-05-10T09:13:14;95862.25;;;10.05;67.97
55315;BME280;41619;42.816;23.226;2023-05-10T09:15:40;95860.31;;;10.06;68.17
55315;BME280;41619;42.816;23.226;2023-05-10T09:18:05;95865.06;;;10.09;67.69
55315;BME280;41619;42.816;23.226;2023-05-10T09:20:31;95860.38;;;10.09;67.73
55315;BME280;41619;42.816;23.226;2023-05-10T09:22:56;95858.88;;;10.12;67.81
55315;BME280;41619;42.816;23.226;2023-05-10T09:25:22;95854.13;;;10.09;67.60
55315;BME280;41619;42.816;23.226;2023-05-10T09:27:48;95857.09;;;10.03;67.17
55315;BME280;41619;42.816;23.226;2023-05-10T09:32:45;95860.31;;;10.06;67.07
55315;BME280;41619;42.816;23.226;2023-05-10T09:37:39;95856.41;;;9.91;66.36
55315;BME280;41619;42.816;23.226;2023-05-10T09:40:07;95850.72;;;9.84;66.24
55315;BME280;41619;42.816;23.226;2023-05-10T09:42:34;95854.00;;;9.89;66.85
55315;BME280;41619;42.816;23.226;2023-05-10T09:45:05;95859.94;;;9.91;66.91
55315;BME280;41619;42.816;23.226;2023-05-10T09:47:35;95855.59;;;9.90;66.76
55315;BME280;41619;42.816;23.226;2023-05-10T09:50:02;95846.06;;;10.00;66.95
55315;BME280;41619;42.816;23.226;2023-05-10T09:55:13;95844.38;;;10.23;67.12
55315;BME280;41619;42.816;23.226;2023-05-10T09:57:39;95851.22;;;10.33;66.89
55315;BME280;41619;42.816;23.226;2023-05-10T10:00:05;95841.53;;;10.36;66.33
55315;BME280;41619;42.816;23.226;2023-05-10T10:02:31;95842.84;;;10.42;66.13
55315;BME280;41619;42.816;23.226;2023-05-10T10:04:57;95849.28;;;10.49;66.31
55315;BME280;41619;42.816;23.226;2023-05-10T10:07:24;95835.44;;;10.42;65.54
55315;BME280;41619;42.816;23.226;2023-05-10T10:09:52;95833.84;;;10.41;65.31
55315;BME280;41619;42.816;23.226;2023-05-10T10:12:18;95828.81;;;10.43;65.63
55315;BME280;41619;42.816;23.226;2023-05-10T10:14:46;95826.16;;;10.47;65.77
55315;BME280;41619;42.816;23.226;2023-05-10T10:17:12;95823.94;;;10.52;65.74
55315;BME280;41619;42.816;23.226;2023-05-10T10:19:38;95822.78;;;10.53;65.66
55315;BME280;41619;42.816;23.226;2023-05-10T10:22:04;95820.84;;;10.54;65.23
55315;BME280;41619;42.816;23.226;2023-05-10T10:24:30;95818.81;;;10.51;64.96
55315;BME280;41619;42.816;23.226;2023-05-10T10:26:59;95826.50;;;10.61;64.91
55315;BME280;41619;42.816;23.226;2023-05-10T10:29:37;95818.72;;;10.63;64.77
55315;BME280;41619;42.816;23.226;2023-05-10T10:34:46;95824.38;;;10.54;64.39
55315;BME280;41619;42.816;23.226;2023-05-10T10:37:12;95827.47;;;10.53;64.25
55315;BME280;41619;42.816;23.226;2023-05-10T10:39:37;95816.81;;;10.48;64.14
55315;BME280;41619;42.816;23.226;2023-05-10T10:42:04;95825.44;;;10.50;64.70
55315;BME280;41619;42.816;23.226;2023-05-10T10:49:38;95819.34;;;10.56;64.34
55315;BME280;41619;42.816;23.226;2023-05-10T10:52:23;95822.19;;;10.60;63.94
55315;BME280;41619;42.816;23.226;2023-05-10T10:54:58;95819.53;;;10.64;63.88
55315;BME280;41619;42.816;23.226;2023-05-10T10:57:25;95818.28;;;10.61;63.97
55315;BME280;41619;42.816;23.226;2023-05-10T10:59:54;95814.03;;;10.64;64.14
55315;BME280;41619;42.816;23.226;2023-05-10T11:07:55;95811.78;;;10.85;64.12
55315;BME280;41619;42.816;23.226;2023-05-10T11:10:21;95819.78;;;10.93;64.51
55315;BME280;41619;42.816;23.226;2023-05-10T11:13:00;95815.69;;;11.03;63.65
55315;BME280;41619;42.816;23.226;2023-05-10T11:15:38;95811.16;;;11.11;63.40
55315;BME280;41619;42.816;23.226;2023-05-10T11:18:29;95821.47;;;11.17;62.95
55315;BME280;41619;42.816;23.226;2023-05-10T11:20:59;95816.63;;;11.30;63.23
55315;BME280;41619;42.816;23.226;2023-05-10T11:23:33;95810.22;;;11.42;62.62
55315;BME280;41619;42.816;23.226;2023-05-10T11:26:12;95802.84;;;11.46;62.40
55315;BME280;41619;42.816;23.226;2023-05-10T11:28:45;95812.72;;;11.50;62.29
55315;BME280;41619;42.816;23.226;2023-05-10T11:31:18;95814.75;;;11.53;62.11
55315;BME280;41619;42.816;23.226;2023-05-10T11:33:48;95816.63;;;11.49;61.75
55315;BME280;41619;42.816;23.226;2023-05-10T11:36:16;95812.03;;;11.53;61.96
55315;BME280;41619;42.816;23.226;2023-05-10T11:38:41;95809.34;;;11.57;62.18
55315;BME280;41619;42.816;23.226;2023-05-10T11:41:11;95818.97;;;11.70;61.75
55315;BME280;41619;42.816;23.226;2023-05-10T11:43:38;95812.56;;;11.82;62.03
55315;BME280;41619;42.816;23.226;2023-05-10T11:46:06;95809.94;;;11.89;62.15
55315;BME280;41619;42.816;23.226;2023-05-10T11:48:31;95809.59;;;11.91;61.74
55315;BME280;41619;42.816;23.226;2023-05-10T11:50:57;95810.72;;;11.90;61.70
55315;BME280;41619;42.816;23.226;2023-05-10T11:53:25;95809.16;;;11.89;61.64
55315;BME280;41619;42.816;23.226;2023-05-10T11:55:50;95809.94;;;11.89;62.12
55315;BME280;41619;42.816;23.226;2023-05-10T11:58:18;95810.69;;;11.86;61.90
55315;BME280;41619;42.816;23.226;2023-05-10T12:00:44;95811.78;;;11.81;61.80
55315;BME280;41619;42.816;23.226;2023-05-10T12:03:10;95809.63;;;11.71;61.27
55315;BME280;41619;42.816;23.226;2023-05-10T12:05:36;95803.19;;;11.64;61.24
55315;BME280;41619;42.816;23.226;2023-05-10T12:08:15;95803.50;;;11.59;61.05
55315;BME280;41619;42.816;23.226;2023-05-10T12:10:40;95809.72;;;11.56;61.10
55315;BME280;41619;42.816;23.226;2023-05-10T12:13:13;95791.59;;;11.51;61.45
55315;BME280;41619;42.816;23.226;2023-05-10T12:15:39;95801.69;;;11.47;61.11
55315;BME280;41619;42.816;23.226;2023-05-10T12:18:05;95795.13;;;11.51;61.50
55315;BME280;41619;42.816;23.226;2023-05-10T12:20:31;95798.00;;;11.59;61.56
55315;BME280;41619;42.816;23.226;2023-05-10T12:22:58;95792.97;;;11.61;62.04
55315;BME280;41619;42.816;23.226;2023-05-10T12:25:35;95787.47;;;11.61;61.90
55315;BME280;41619;42.816;23.226;2023-05-10T12:28:03;95792.53;;;11.59;61.60
55315;BME280;41619;42.816;23.226;2023-05-10T12:30:31;95793.69;;;11.58;61.88
55315;BME280;41619;42.816;23.226;2023-05-10T12:33:13;95796.50;;;11.61;61.79
55315;BME280;41619;42.816;23.226;2023-05-10T12:35:50;95778.75;;;11.55;61.70
55315;BME280;41619;42.816;23.226;2023-05-10T12:38:25;95790.72;;;11.47;61.31
55315;BME280;41619;42.816;23.226;2023-05-10T12:40:50;95788.28;;;11.42;61.52
55315;BME280;41619;42.816;23.226;2023-05-10T12:43:16;95790.25;;;11.41;61.51
55315;BME280;41619;42.816;23.226;2023-05-10T12:45:41;95792.50;;;11.36;61.60
55315;BME280;41619;42.816;23.226;2023-05-10T12:48:07;95789.66;;;11.32;61.98
55315;BME280;41619;42.816;23.226;2023-05-10T12:50:32;95783.63;;;11.23;61.62
55315;BME280;41619;42.816;23.226;2023-05-10T12:52:57;95779.13;;;11.15;61.74
55315;BME280;41619;42.816;23.226;2023-05-10T12:55:23;95775.09;;;11.09;61.72
55315;BME280;41619;42.816;23.226;2023-05-10T12:57:48;95774.25;;;11.05;61.89
55315;BME280;41619;42.816;23.226;2023-05-10T13:00:14;95772.16;;;10.98;61.96
55315;BME280;41619;42.816;23.226;2023-05-10T13:02:39;95769.31;;;10.95;62.13
55315;BME280;41619;42.816;23.226;2023-05-10T13:05:05;95763.41;;;10.92;62.34
55315;BME280;41619;42.816;23.226;2023-05-10T13:07:31;95763.00;;;10.90;62.53
55315;BME280;41619;42.816;23.226;2023-05-10T13:09:56;95762.25;;;10.93;62.30
55315;BME280;41619;42.816;23.226;2023-05-10T13:12:22;95753.44;;;11.00;62.46
55315;BME280;41619;42.816;23.226;2023-05-10T13:14:47;95757.16;;;11.11;62.69
55315;BME280;41619;42.816;23.226;2023-05-10T13:17:12;95756.88;;;11.16;62.61
55315;BME280;41619;42.816;23.226;2023-05-10T13:19:38;95751.41;;;11.16;62.69
55315;BME280;41619;42.816;23.226;2023-05-10T13:22:03;95754.22;;;11.20;62.85
55315;BME280;41619;42.816;23.226;2023-05-10T13:24:29;95748.44;;;11.25;62.75
55315;BME280;41619;42.816;23.226;2023-05-10T13:26:54;95737.22;;;11.34;62.71
55315;BME280;41619;42.816;23.226;2023-05-10T13:29:20;95740.78;;;11.34;62.21
55315;BME280;41619;42.816;23.226;2023-05-10T13:31:46;95746.97;;;11.31;62.30
55315;BME280;41619;42.816;23.226;2023-05-10T13:34:11;95744.22;;;11.31;62.61